createdAt,value
2017-10-16T00:00:22.719Z,315
2017-10-16T00:01:22.784Z,315
2017-10-16T00:02:22.759Z,315
2017-10-16T00:03:22.707Z,315
2017-10-16T00:04:22.688Z,315
2017-10-16T00:05:22.718Z,315
2017-10-16T00:06:22.774Z,315
2017-10-16T00:07:22.739Z,315
2017-10-16T00:08:22.690Z,315
2017-10-16T00:09:22.695Z,315
2017-10-16T00:10:22.729Z,315
2017-10-16T00:11:22.792Z,315
2017-10-16T00:12:22.706Z,315
2017-10-16T00:13:22.680Z,315
2017-10-16T00:14:22.695Z,315
2017-10-16T00:15:22.724Z,315
2017-10-16T00:16:22.771Z,315
2017-10-16T00:17:22.692Z,315
2017-10-16T00:18:22.708Z,315
2017-10-16T00:19:22.758Z,315
2017-10-16T00:20:22.745Z,315
2017-10-16T00:21:22.785Z,315
2017-10-16T00:22:22.701Z,315
2017-10-16T00:23:22.684Z,315
2017-10-16T00:24:22.707Z,315
2017-10-16T00:25:22.677Z,315
2017-10-16T00:26:22.779Z,315
2017-10-16T00:27:22.694Z,315
2017-10-16T00:28:22.682Z,315
2017-10-16T00:29:22.721Z,315
2017-10-16T00:30:22.666Z,315
2017-10-16T00:31:22.821Z,315
2017-10-16T00:32:22.716Z,315
2017-10-16T00:33:22.700Z,315
2017-10-16T00:34:22.706Z,315
2017-10-16T00:35:22.697Z,315
2017-10-16T00:36:22.789Z,315
2017-10-16T00:37:22.678Z,315
2017-10-16T00:38:22.744Z,315
2017-10-16T00:39:22.725Z,315
2017-10-16T00:40:22.685Z,315
2017-10-16T00:41:22.767Z,315
2017-10-16T00:42:22.644Z,315
2017-10-16T00:43:22.669Z,315
2017-10-16T00:44:22.679Z,315
2017-10-16T00:45:22.707Z,315
2017-10-16T00:46:22.795Z,315
2017-10-16T00:47:22.688Z,315
2017-10-16T00:48:22.702Z,315
2017-10-16T00:49:22.698Z,315
2017-10-16T00:50:22.675Z,315
2017-10-16T00:51:22.811Z,315
2017-10-16T00:52:22.696Z,315
2017-10-16T00:53:22.693Z,315
2017-10-16T00:54:22.684Z,315
2017-10-16T00:55:22.655Z,315
2017-10-16T00:56:22.780Z,315
2017-10-16T00:57:22.710Z,315
2017-10-16T00:58:22.689Z,315
2017-10-16T00:59:22.672Z,315
2017-10-16T01:00:22.676Z,315
2017-10-16T01:01:22.754Z,315
2017-10-16T01:02:22.726Z,315
2017-10-16T01:03:22.714Z,315
2017-10-16T01:04:22.735Z,315
2017-10-16T01:05:22.684Z,315
2017-10-16T01:06:22.747Z,315
2017-10-16T01:07:22.754Z,315
2017-10-16T01:08:22.702Z,306.5
2017-10-16T01:09:22.694Z,159.5
2017-10-16T01:10:22.667Z,137.7
2017-10-16T01:11:22.758Z,314.8
2017-10-16T01:12:22.687Z,315
2017-10-16T01:13:22.722Z,315
2017-10-16T01:14:57.288Z,315
2017-10-16T01:15:22.675Z,328.1
2017-10-16T01:16:22.766Z,295.4
2017-10-16T01:17:22.671Z,280.5
2017-10-16T01:18:22.699Z,274.6
2017-10-16T01:19:22.740Z,297.1
2017-10-16T01:20:22.692Z,307.1
2017-10-16T01:21:22.703Z,311.4
2017-10-16T01:22:22.712Z,313.4
2017-10-16T01:23:22.677Z,315.8
2017-10-16T01:24:22.652Z,339.6
2017-10-16T01:25:22.672Z,350.9
2017-10-16T01:26:22.779Z,355.9
2017-10-16T01:27:22.781Z,358.1
2017-10-16T01:28:22.674Z,22.3
2017-10-16T01:29:22.736Z,304.8
2017-10-16T01:30:22.697Z,239.8
2017-10-16T01:31:22.670Z,230
2017-10-16T01:32:22.729Z,227
2017-10-16T01:33:22.689Z,225.9
2017-10-16T01:34:22.664Z,226.9
2017-10-16T01:35:22.667Z,291.3
2017-10-16T01:36:22.664Z,322
2017-10-16T01:37:22.783Z,331.4
2017-10-16T01:38:22.662Z,334.9
2017-10-16T01:39:22.670Z,336.3
2017-10-16T01:40:22.719Z,337
2017-10-16T01:41:22.737Z,337.2
2017-10-16T01:42:22.765Z,337.4
2017-10-16T01:43:22.664Z,337.4
2017-10-16T01:44:22.677Z,337.5
2017-10-16T01:45:22.655Z,337.5
2017-10-16T01:46:22.693Z,337.5
2017-10-16T01:47:22.741Z,337.5
2017-10-16T01:48:22.718Z,337.5
2017-10-16T01:49:22.726Z,337.5
2017-10-16T01:50:22.724Z,337.5
2017-10-16T01:51:22.668Z,6
2017-10-16T01:52:22.683Z,118.6
2017-10-16T01:53:22.723Z,130.1
2017-10-16T01:54:22.700Z,133.1
2017-10-16T01:55:22.685Z,134.2
2017-10-16T01:56:22.670Z,132.8
2017-10-16T01:57:22.682Z,41.4
2017-10-16T01:58:22.686Z,44.3
2017-10-16T01:59:22.674Z,44.7
2017-10-16T02:00:22.686Z,44.9
2017-10-16T02:01:22.675Z,44.9
2017-10-16T02:02:22.737Z,45
2017-10-16T02:03:22.702Z,45
2017-10-16T02:04:22.694Z,45
2017-10-16T02:05:22.665Z,45
2017-10-16T02:06:22.706Z,45
2017-10-16T02:07:22.667Z,26.6
2017-10-16T02:08:22.727Z,11.9
2017-10-16T02:09:22.698Z,5.4
2017-10-16T02:10:22.695Z,2.5
2017-10-16T02:11:22.691Z,1.1
2017-10-16T02:12:22.656Z,0.5
2017-10-16T02:13:22.725Z,0.3
2017-10-16T02:14:22.678Z,0.1
2017-10-16T02:15:22.661Z,0.1
2017-10-16T02:16:22.657Z,0
2017-10-16T02:17:22.658Z,0
2017-10-16T02:18:22.731Z,0
2017-10-16T02:19:22.674Z,0
2017-10-16T02:20:22.666Z,0
2017-10-16T02:21:22.642Z,0
2017-10-16T02:22:22.686Z,0
2017-10-16T02:23:22.739Z,0
2017-10-16T02:24:22.689Z,0
2017-10-16T02:25:22.681Z,0
2017-10-16T02:26:22.719Z,0
2017-10-16T02:27:22.637Z,0
2017-10-16T02:28:22.774Z,0
2017-10-16T02:29:22.679Z,0
2017-10-16T02:30:22.658Z,0
2017-10-16T02:31:22.671Z,0
2017-10-16T02:32:22.655Z,0
2017-10-16T02:37:46.101Z,0
2017-10-16T02:38:22.703Z,0
2017-10-16T02:39:22.750Z,0
2017-10-16T02:40:22.636Z,0
2017-10-16T02:41:22.613Z,0
2017-10-16T02:42:22.635Z,0
2017-10-16T02:43:22.680Z,7.1
2017-10-16T02:44:22.753Z,43.9
2017-10-16T02:45:22.659Z,71.7
2017-10-16T02:46:22.651Z,82.3
2017-10-16T02:47:22.659Z,86.6
2017-10-16T02:48:22.647Z,88.4
2017-10-16T02:49:22.698Z,89.3
2017-10-16T02:50:22.627Z,89.7
2017-10-16T02:51:22.639Z,89.8
2017-10-16T02:52:22.649Z,89.9
2017-10-16T02:53:22.629Z,90
2017-10-16T02:54:22.743Z,90
2017-10-16T02:55:22.634Z,90
2017-10-16T02:56:22.695Z,90
2017-10-16T02:57:22.693Z,90
2017-10-16T02:58:22.644Z,90
2017-10-16T02:59:22.737Z,90
2017-10-16T03:00:22.707Z,90
2017-10-16T03:01:22.688Z,90
2017-10-16T03:02:22.680Z,91
2017-10-16T03:03:22.656Z,126.8
2017-10-16T03:04:22.704Z,144.6
2017-10-16T03:05:22.620Z,151.8
2017-10-16T03:06:22.664Z,150.4
2017-10-16T03:07:22.676Z,28.1
2017-10-16T03:08:22.646Z,5.9
2017-10-16T03:09:22.734Z,2.2
2017-10-16T03:10:22.648Z,0.9
2017-10-16T03:11:22.618Z,0.4
2017-10-16T03:12:22.610Z,0.2
2017-10-16T03:13:22.632Z,0.1
2017-10-16T03:14:22.734Z,0
2017-10-16T03:15:22.683Z,0
2017-10-16T03:16:22.704Z,0
2017-10-16T03:17:22.674Z,0
2017-10-16T03:18:22.664Z,0
2017-10-16T03:19:22.712Z,0
2017-10-16T03:20:22.632Z,0
2017-10-16T03:21:22.671Z,0
2017-10-16T03:22:22.620Z,0
2017-10-16T03:23:22.646Z,0
2017-10-16T03:24:22.705Z,354.9
2017-10-16T03:25:22.620Z,315.5
2017-10-16T03:26:22.604Z,2
2017-10-16T03:27:22.644Z,16.8
2017-10-16T03:28:22.625Z,330.3
2017-10-16T03:29:22.677Z,320.5
2017-10-16T03:30:22.623Z,317.3
2017-10-16T03:31:22.617Z,316
2017-10-16T03:32:22.611Z,336.3
2017-10-16T03:33:22.689Z,60.2
2017-10-16T03:34:22.769Z,81.1
2017-10-16T03:35:22.703Z,86.5
2017-10-16T03:36:22.636Z,128.5
2017-10-16T03:37:22.644Z,160.6
2017-10-16T03:38:22.622Z,172.1
2017-10-16T03:39:22.716Z,176.5
2017-10-16T03:40:22.643Z,178.4
2017-10-16T03:41:22.606Z,357.4
2017-10-16T03:42:22.623Z,359.9
2017-10-16T03:43:22.629Z,360
2017-10-16T03:44:22.660Z,360
2017-10-16T03:45:22.633Z,360
2017-10-16T03:46:22.620Z,360
2017-10-16T03:47:22.613Z,360
2017-10-16T03:48:22.666Z,360
2017-10-16T03:49:22.709Z,360
2017-10-16T03:50:22.649Z,360
2017-10-16T03:51:22.651Z,360
2017-10-16T03:52:22.668Z,360
2017-10-16T03:53:22.637Z,337.4
2017-10-16T03:54:22.682Z,325
2017-10-16T03:55:22.635Z,319.6
2017-10-16T03:56:22.645Z,317.1
2017-10-16T03:57:22.641Z,325.5
2017-10-16T03:58:22.676Z,47.1
2017-10-16T03:59:22.700Z,5.7
2017-10-16T04:00:22.612Z,103.1
2017-10-16T04:01:22.645Z,323.1
2017-10-16T04:02:22.653Z,274.1
2017-10-16T04:03:22.664Z,271.4
2017-10-16T04:04:22.661Z,269.4
2017-10-16T04:05:22.670Z,244.5
2017-10-16T04:06:22.617Z,201.1
2017-10-16T04:07:22.639Z,156.6
2017-10-16T04:08:22.697Z,143.2
2017-10-16T04:09:22.616Z,138.5
2017-10-16T04:10:22.644Z,144.8
2017-10-16T04:11:22.627Z,191
2017-10-16T04:12:22.623Z,357.8
2017-10-16T04:13:22.631Z,359.4
2017-10-16T04:14:22.660Z,359.8
2017-10-16T04:15:22.659Z,359.9
2017-10-16T04:16:22.644Z,360
2017-10-16T04:17:22.634Z,360
2017-10-16T04:18:22.650Z,360
2017-10-16T04:19:22.633Z,360
2017-10-16T04:20:22.720Z,360
2017-10-16T04:21:22.646Z,360
2017-10-16T04:22:22.627Z,360
2017-10-16T04:23:22.610Z,360
2017-10-16T04:24:22.670Z,360
2017-10-16T04:25:22.693Z,360
2017-10-16T04:26:22.780Z,360
2017-10-16T04:27:42.394Z,360
2017-10-16T04:28:22.620Z,360
2017-10-16T04:29:22.626Z,360
2017-10-16T04:30:22.695Z,360
2017-10-16T04:31:22.637Z,360
2017-10-16T04:32:22.625Z,360
2017-10-16T04:33:22.612Z,360
2017-10-16T04:34:22.607Z,360
2017-10-16T04:35:22.767Z,360
2017-10-16T04:36:22.658Z,360
2017-10-16T04:37:22.610Z,360
2017-10-16T04:38:22.636Z,360
2017-10-16T04:39:22.646Z,360
2017-10-16T04:40:22.715Z,360
2017-10-16T04:41:23.127Z,360
2017-10-16T04:42:22.573Z,360
2017-10-16T04:43:22.660Z,360
2017-10-16T04:44:22.627Z,360
2017-10-16T04:45:22.696Z,360
2017-10-16T04:46:22.640Z,360
2017-10-16T04:47:22.626Z,360
2017-10-16T04:48:22.638Z,360
2017-10-16T04:49:22.580Z,360
2017-10-16T04:50:22.684Z,360
2017-10-16T04:51:22.636Z,360
2017-10-16T04:52:22.608Z,360
2017-10-16T04:53:22.662Z,360
2017-10-16T04:54:57.267Z,360
2017-10-16T04:55:22.697Z,360
2017-10-16T04:56:22.630Z,360
2017-10-16T04:57:22.601Z,360
2017-10-16T04:58:22.627Z,360
2017-10-16T04:59:22.602Z,360
2017-10-16T05:00:22.713Z,360
2017-10-16T05:01:22.663Z,360
2017-10-16T05:02:22.652Z,360
2017-10-16T05:03:22.648Z,360
2017-10-16T05:04:22.595Z,360
2017-10-16T05:05:22.593Z,360
2017-10-16T05:06:22.712Z,360
2017-10-16T05:07:22.603Z,360
2017-10-16T05:08:22.600Z,360
2017-10-16T05:09:22.616Z,360
2017-10-16T05:10:22.576Z,360
2017-10-16T05:11:22.723Z,360
2017-10-16T05:12:22.611Z,360
2017-10-16T05:13:22.622Z,360
2017-10-16T05:14:22.591Z,360
2017-10-16T05:15:22.684Z,360
2017-10-16T05:16:22.672Z,360
2017-10-16T05:17:22.652Z,360
2017-10-16T05:18:22.573Z,360
2017-10-16T05:19:22.572Z,360
2017-10-16T05:20:22.613Z,360
2017-10-16T05:21:22.661Z,360
2017-10-16T05:22:22.603Z,360
2017-10-16T05:23:22.580Z,360
2017-10-16T05:24:22.658Z,360
2017-10-16T05:25:22.607Z,360
2017-10-16T05:26:22.687Z,360
2017-10-16T05:27:22.667Z,360
2017-10-16T05:28:22.638Z,360
2017-10-16T05:29:22.575Z,360
2017-10-16T05:30:22.568Z,360
2017-10-16T05:31:22.636Z,360
2017-10-16T05:32:22.621Z,360
2017-10-16T05:33:22.620Z,360
2017-10-16T05:34:22.629Z,356.3
2017-10-16T05:35:22.606Z,185.7
2017-10-16T05:36:22.649Z,180.9
2017-10-16T05:37:22.611Z,180.3
2017-10-16T05:38:22.637Z,180.9
2017-10-16T05:39:22.592Z,180.4
2017-10-16T05:40:22.654Z,180.2
2017-10-16T05:41:22.711Z,180.1
2017-10-16T05:42:22.614Z,180
2017-10-16T05:43:22.594Z,180
2017-10-16T05:44:22.591Z,180.6
2017-10-16T05:45:22.614Z,173.8
2017-10-16T05:46:22.656Z,152.7
2017-10-16T05:47:22.610Z,142.9
2017-10-16T05:48:22.627Z,138.6
2017-10-16T05:49:22.594Z,136.7
2017-10-16T05:50:22.639Z,135.8
2017-10-16T05:51:22.763Z,135.4
2017-10-16T05:52:22.586Z,132.1
2017-10-16T05:53:22.594Z,315.8
2017-10-16T05:54:22.576Z,315.2
2017-10-16T05:55:22.582Z,315.1
2017-10-16T05:56:22.762Z,315
2017-10-16T05:57:22.604Z,315
2017-10-16T05:58:22.593Z,315
2017-10-16T05:59:22.552Z,315
2017-10-16T06:00:22.583Z,315
2017-10-16T06:01:22.656Z,315
2017-10-16T06:02:22.564Z,315
2017-10-16T06:03:22.576Z,317.2
2017-10-16T06:04:22.573Z,128.3
2017-10-16T06:05:22.589Z,134.3
2017-10-16T06:06:22.644Z,134.8
2017-10-16T06:07:22.568Z,134.9
2017-10-16T06:08:22.608Z,135
2017-10-16T06:09:22.617Z,135
2017-10-16T06:10:22.596Z,135
2017-10-16T06:11:22.626Z,135
2017-10-16T06:12:22.560Z,135
2017-10-16T06:13:22.581Z,135
2017-10-16T06:14:22.587Z,135
2017-10-16T06:15:22.558Z,135
2017-10-16T06:16:22.606Z,135
2017-10-16T06:17:22.631Z,156.6
2017-10-16T06:18:22.581Z,154.7
2017-10-16T06:19:22.574Z,166.6
2017-10-16T06:20:22.595Z,174
2017-10-16T06:21:22.669Z,177.3
2017-10-16T06:22:22.627Z,178.7
2017-10-16T06:23:22.604Z,179.4
2017-10-16T06:24:22.628Z,179.7
2017-10-16T06:25:22.640Z,179.9
2017-10-16T06:26:22.706Z,179.9
2017-10-16T06:27:22.560Z,180
2017-10-16T06:28:22.650Z,180
2017-10-16T06:29:22.614Z,180
2017-10-16T06:30:22.603Z,180
2017-10-16T06:31:22.656Z,180
2017-10-16T06:32:22.604Z,180.6
2017-10-16T06:33:22.560Z,112.3
2017-10-16T06:34:22.560Z,53.5
2017-10-16T06:35:22.616Z,8.6
2017-10-16T06:36:22.596Z,333.9
2017-10-16T06:37:22.641Z,344.1
2017-10-16T06:38:22.562Z,353.3
2017-10-16T06:39:22.632Z,41.1
2017-10-16T06:40:22.593Z,119.7
2017-10-16T06:41:22.603Z,74.4
2017-10-16T06:42:22.651Z,78.6
2017-10-16T06:43:22.599Z,82.4
2017-10-16T06:44:22.567Z,57.2
2017-10-16T06:45:22.586Z,68.9
2017-10-16T06:46:22.584Z,101.3
2017-10-16T06:47:22.656Z,121.5
2017-10-16T06:48:22.592Z,129.5
2017-10-16T06:49:22.552Z,42.7
2017-10-16T06:50:22.810Z,9.7
2017-10-16T06:51:22.560Z,3.6
2017-10-16T06:52:22.685Z,1.5
2017-10-16T06:53:22.592Z,0.7
2017-10-16T06:54:22.621Z,343.2
2017-10-16T06:55:22.607Z,352
2017-10-16T06:56:22.543Z,356.9
2017-10-16T06:57:22.616Z,358.7
2017-10-16T06:58:22.560Z,359.4
2017-10-16T06:59:22.574Z,359.7
2017-10-16T07:00:22.546Z,359.9
2017-10-16T07:01:22.533Z,359.9
2017-10-16T07:02:22.624Z,360
2017-10-16T07:03:22.598Z,360
2017-10-16T07:04:22.545Z,360
2017-10-16T07:05:22.564Z,360
2017-10-16T07:06:22.609Z,360
2017-10-16T07:07:22.640Z,360
2017-10-16T07:08:22.581Z,360
2017-10-16T07:09:22.597Z,360
2017-10-16T07:10:22.556Z,360
2017-10-16T07:11:22.551Z,360
2017-10-16T07:12:22.631Z,360
2017-10-16T07:13:22.553Z,360
2017-10-16T07:14:22.540Z,360
2017-10-16T07:15:22.566Z,360
2017-10-16T07:16:22.563Z,360
2017-10-16T07:17:22.650Z,360
2017-10-16T07:18:22.600Z,360
2017-10-16T07:19:22.604Z,360
2017-10-16T07:20:22.572Z,360
2017-10-16T07:21:22.571Z,348.7
2017-10-16T07:22:22.723Z,343
2017-10-16T07:23:22.613Z,352.4
2017-10-16T07:24:22.561Z,356.5
2017-10-16T07:25:22.596Z,9.2
2017-10-16T07:26:22.608Z,170.7
2017-10-16T07:27:22.662Z,178
2017-10-16T07:28:22.604Z,285.3
2017-10-16T07:29:22.545Z,307.9
2017-10-16T07:30:22.563Z,334.9
2017-10-16T07:31:22.604Z,349.9
2017-10-16T07:32:22.662Z,355
2017-10-16T07:33:22.584Z,333.3
2017-10-16T07:34:22.580Z,323.1
2017-10-16T07:35:22.558Z,318.7
2017-10-16T07:36:22.582Z,340.3
2017-10-16T07:37:22.694Z,352.2
2017-10-16T07:38:22.546Z,342.6
2017-10-16T07:39:22.569Z,23.6
2017-10-16T07:40:22.576Z,359.4
2017-10-16T07:41:22.574Z,339
2017-10-16T07:42:22.734Z,341.1
2017-10-16T07:43:22.535Z,349.6
2017-10-16T07:44:22.551Z,330.4
2017-10-16T07:45:22.568Z,321.9
2017-10-16T07:46:22.527Z,318.1
2017-10-16T07:47:22.585Z,315
2017-10-16T07:48:22.570Z,313.6
2017-10-16T07:49:22.589Z,63.9
2017-10-16T07:50:22.613Z,82.1
2017-10-16T07:51:22.571Z,97.5
2017-10-16T07:52:22.805Z,134.2
2017-10-16T07:53:22.563Z,162.5
2017-10-16T07:54:22.556Z,194.7
2017-10-16T07:55:22.548Z,239.1
2017-10-16T07:56:22.552Z,337.3
2017-10-16T07:57:22.633Z,333.7
2017-10-16T07:58:22.578Z,341.1
2017-10-16T07:59:22.571Z,348.3
2017-10-16T08:00:22.608Z,355.7
2017-10-16T08:01:22.584Z,52.4
2017-10-16T08:02:22.646Z,27.5
2017-10-16T08:03:22.553Z,342.6
2017-10-16T08:04:22.555Z,310.5
2017-10-16T08:05:22.546Z,266.2
2017-10-16T08:06:22.576Z,230.7
2017-10-16T08:07:22.651Z,178.3
2017-10-16T08:08:22.539Z,7.9
2017-10-16T08:09:22.547Z,111.6
2017-10-16T08:10:22.552Z,63.6
2017-10-16T08:11:22.540Z,6
2017-10-16T08:12:22.653Z,4
2017-10-16T08:13:22.563Z,1.7
2017-10-16T08:14:22.501Z,356.6
2017-10-16T08:15:22.559Z,20.7
2017-10-16T08:16:22.582Z,6.2
2017-10-16T08:17:22.572Z,344
2017-10-16T08:18:22.571Z,3.4
2017-10-16T08:19:22.562Z,178.3
2017-10-16T08:20:22.536Z,169.9
2017-10-16T08:21:22.606Z,79.9
2017-10-16T08:22:22.585Z,21.1
2017-10-16T08:23:22.602Z,356.3
2017-10-16T08:24:22.598Z,315.4
2017-10-16T08:25:22.534Z,282.6
2017-10-16T08:26:22.563Z,274.9
2017-10-16T08:27:22.537Z,285.9
2017-10-16T08:28:22.595Z,303.9
2017-10-16T08:29:22.558Z,304.6
2017-10-16T08:30:22.588Z,285.2
2017-10-16T08:31:57.179Z,220.5
2017-10-16T08:32:22.538Z,331.2
2017-10-16T08:33:22.602Z,337.9
2017-10-16T08:34:22.563Z,325.5
2017-10-16T08:35:22.538Z,334
2017-10-16T08:36:22.553Z,337.2
2017-10-16T08:37:22.597Z,342
2017-10-16T08:38:22.576Z,346.5
2017-10-16T08:39:22.523Z,353.9
2017-10-16T08:40:22.540Z,4.1
2017-10-16T08:41:22.576Z,357.4
2017-10-16T08:42:22.577Z,354.3
2017-10-16T08:43:22.610Z,351.2
2017-10-16T08:44:22.564Z,333.9
2017-10-16T08:45:22.572Z,316.4
2017-10-16T08:46:22.537Z,328.7
2017-10-16T08:47:22.565Z,323.1
2017-10-16T08:48:22.693Z,326.1
2017-10-16T08:49:22.525Z,332.6
2017-10-16T08:50:22.582Z,333.5
2017-10-16T08:51:22.593Z,335.2
2017-10-16T08:52:22.589Z,333
2017-10-16T08:53:22.663Z,336.9
2017-10-16T08:54:22.593Z,348
2017-10-16T08:55:22.561Z,352.3
2017-10-16T08:56:22.514Z,347.2
2017-10-16T08:57:22.568Z,342.6
2017-10-16T08:58:22.606Z,353.1
2017-10-16T08:59:22.551Z,346.1
2017-10-16T09:00:22.538Z,345.2
2017-10-16T09:01:22.600Z,335.9
2017-10-16T09:02:22.559Z,330.9
2017-10-16T09:03:22.665Z,17.2
2017-10-16T09:04:22.579Z,354
2017-10-16T09:05:22.538Z,353.6
2017-10-16T09:06:22.564Z,21.6
2017-10-16T09:07:22.606Z,10.2
2017-10-16T09:08:22.631Z,349.5
2017-10-16T09:09:22.541Z,334.5
2017-10-16T09:10:22.590Z,323.2
2017-10-16T09:11:22.536Z,299.9
2017-10-16T09:12:22.578Z,307.9
2017-10-16T09:13:25.604Z,321.6
2017-10-16T09:14:22.553Z,318.3
2017-10-16T09:15:22.564Z,326.9
2017-10-16T09:16:22.551Z,323.6
2017-10-16T09:17:22.566Z,315.4
2017-10-16T09:18:22.634Z,319.9
2017-10-16T09:19:22.538Z,316.8
2017-10-16T09:20:22.541Z,317.5
2017-10-16T09:21:22.592Z,338.2
2017-10-16T09:22:22.551Z,354.1
2017-10-16T09:23:22.606Z,336.3
2017-10-16T09:24:22.553Z,333.6
2017-10-16T09:25:22.534Z,339.3
2017-10-16T09:26:22.575Z,346.2
2017-10-16T09:27:22.586Z,343.6
2017-10-16T09:28:22.653Z,354.2
2017-10-16T09:29:22.560Z,360
2017-10-16T09:30:22.580Z,354.9
2017-10-16T09:31:22.549Z,338
2017-10-16T09:32:22.556Z,334.6
2017-10-16T09:33:22.633Z,339.5
2017-10-16T09:34:22.549Z,329.1
2017-10-16T09:35:22.570Z,322.7
2017-10-16T09:36:22.566Z,334.1
2017-10-16T09:37:22.549Z,332.4
2017-10-16T09:38:22.622Z,325.3
2017-10-16T09:39:22.567Z,329.6
2017-10-16T09:40:22.600Z,333.8
2017-10-16T09:41:22.520Z,332.2
2017-10-16T09:42:22.577Z,316.8
2017-10-16T09:43:22.614Z,183.5
2017-10-16T09:44:22.561Z,143
2017-10-16T09:45:22.567Z,355.9
2017-10-16T09:46:22.554Z,326.3
2017-10-16T09:47:22.588Z,326.7
2017-10-16T09:48:22.622Z,324.3
2017-10-16T09:49:22.563Z,14.9
2017-10-16T09:50:22.575Z,2.8
2017-10-16T09:51:22.563Z,337.8
2017-10-16T09:52:22.562Z,329
2017-10-16T09:53:22.647Z,339
2017-10-16T09:54:22.559Z,341.1
2017-10-16T09:55:22.566Z,333
2017-10-16T09:56:22.543Z,333.4
2017-10-16T09:57:22.568Z,339.5
2017-10-16T09:58:22.612Z,9.3
2017-10-16T09:59:22.585Z,9.5
2017-10-16T10:00:22.529Z,30.4
2017-10-16T10:01:22.587Z,32.9
2017-10-16T10:02:22.548Z,2.5
2017-10-16T10:03:22.629Z,57
2017-10-16T10:04:22.584Z,26.7
2017-10-16T10:05:22.577Z,349.1
2017-10-16T10:06:22.581Z,16.6
2017-10-16T10:07:22.529Z,28.5
2017-10-16T10:08:22.647Z,345.2
2017-10-16T10:09:22.586Z,330.9
2017-10-16T10:10:22.521Z,283.2
2017-10-16T10:11:22.580Z,327.8
2017-10-16T10:12:22.543Z,327.8
2017-10-16T10:13:22.589Z,331.3
2017-10-16T10:14:22.528Z,317.6
2017-10-16T10:15:22.549Z,0.9
2017-10-16T10:16:22.590Z,0.1
2017-10-16T10:17:22.535Z,342.7
2017-10-16T10:18:22.589Z,326.4
2017-10-16T10:19:22.565Z,334.1
2017-10-16T10:20:22.564Z,344.2
2017-10-16T10:21:22.535Z,313.4
2017-10-16T10:22:22.540Z,326.9
2017-10-16T10:23:22.598Z,320.4
2017-10-16T10:24:22.601Z,341
2017-10-16T10:25:22.552Z,332.3
2017-10-16T10:26:22.579Z,343.7
2017-10-16T10:27:22.574Z,348.4
2017-10-16T10:28:22.577Z,324.9
2017-10-16T10:29:22.578Z,316.4
2017-10-16T10:30:22.542Z,326.7
2017-10-16T10:31:22.529Z,329.5
2017-10-16T10:32:22.571Z,340.3
2017-10-16T10:33:22.590Z,336.3
2017-10-16T10:34:22.635Z,332.4
2017-10-16T10:35:22.533Z,314.3
2017-10-16T10:36:22.542Z,305.3
2017-10-16T10:37:23.424Z,339.6
2017-10-16T10:38:22.554Z,336.7
2017-10-16T10:39:22.625Z,305
2017-10-16T10:40:22.572Z,336.4
2017-10-16T10:41:22.592Z,353.4
2017-10-16T10:42:22.547Z,339
2017-10-16T10:43:25.589Z,313.7
2017-10-16T10:44:22.675Z,267.5
2017-10-16T10:45:22.587Z,296.5
2017-10-16T10:46:22.548Z,308.9
2017-10-16T10:47:22.537Z,317.6
2017-10-16T10:48:22.606Z,314.3
2017-10-16T10:49:22.622Z,309.1
2017-10-16T10:50:22.546Z,322.4
2017-10-16T10:51:22.529Z,321.9
2017-10-16T10:52:22.562Z,333
2017-10-16T10:53:22.569Z,336.4
2017-10-16T10:54:22.656Z,331.1
2017-10-16T10:55:22.593Z,335.8
2017-10-16T10:56:22.548Z,328.8
2017-10-16T10:57:22.545Z,321.1
2017-10-16T10:58:22.527Z,313.9
2017-10-16T10:59:22.597Z,316.7
2017-10-16T11:00:22.584Z,333.8
2017-10-16T11:01:22.546Z,330.7
2017-10-16T11:02:22.569Z,316.3
2017-10-16T11:03:22.531Z,316.2
2017-10-16T11:04:22.624Z,317.8
2017-10-16T11:05:22.534Z,330.8
2017-10-16T11:06:22.585Z,315.8
2017-10-16T11:07:22.604Z,311.5
2017-10-16T11:08:22.547Z,318
2017-10-16T11:09:22.648Z,333.9
2017-10-16T11:10:22.557Z,339
2017-10-16T11:11:22.536Z,280.1
2017-10-16T11:12:22.540Z,290.3
2017-10-16T11:13:22.541Z,312.6
2017-10-16T11:14:22.603Z,309
2017-10-16T11:15:22.527Z,320
2017-10-16T11:16:22.553Z,311.1
2017-10-16T11:17:22.603Z,313.6
2017-10-16T11:18:22.559Z,320
2017-10-16T11:19:22.653Z,329
2017-10-16T11:20:22.529Z,325.3
2017-10-16T11:21:22.563Z,326.1
2017-10-16T11:22:22.565Z,351.7
2017-10-16T11:23:22.579Z,332.6
2017-10-16T11:24:22.590Z,327.1
2017-10-16T11:25:22.560Z,326.2
2017-10-16T11:26:22.545Z,324.9
2017-10-16T11:27:22.535Z,335.9
2017-10-16T11:28:22.588Z,335.9
2017-10-16T11:29:22.615Z,333.8
2017-10-16T11:30:22.606Z,328.3
2017-10-16T11:31:22.514Z,332.3
2017-10-16T11:32:22.553Z,329.2
2017-10-16T11:33:22.560Z,337.9
2017-10-16T11:34:22.674Z,336
2017-10-16T11:35:22.591Z,332.4
2017-10-16T11:36:22.551Z,336
2017-10-16T11:37:22.542Z,336.8
2017-10-16T11:38:22.572Z,324.6
2017-10-16T11:39:22.647Z,331.9
2017-10-16T11:40:22.548Z,338.5
2017-10-16T11:41:22.568Z,329.4
2017-10-16T11:42:22.551Z,317
2017-10-16T11:43:22.521Z,324.1
2017-10-16T11:44:22.630Z,328.7
2017-10-16T11:45:22.521Z,319.4
2017-10-16T11:46:22.557Z,315.3
2017-10-16T11:47:22.602Z,318.5
2017-10-16T11:48:22.554Z,327.9
2017-10-16T11:49:22.629Z,284.1
2017-10-16T11:50:22.595Z,320.5
2017-10-16T11:51:25.554Z,327.7
2017-10-16T11:52:22.545Z,343
2017-10-16T11:53:22.601Z,345
2017-10-16T11:54:22.666Z,276
2017-10-16T11:55:22.544Z,323.6
2017-10-16T11:56:22.562Z,329.6
2017-10-16T11:57:22.529Z,334.9
2017-10-16T11:58:22.591Z,329.4
2017-10-16T11:59:22.621Z,327.8
2017-10-16T12:00:22.527Z,324.6
2017-10-16T12:01:22.569Z,320.4
2017-10-16T12:02:22.601Z,324.4
2017-10-16T12:03:22.555Z,316.8
2017-10-16T12:04:22.681Z,312.5
2017-10-16T12:05:23.039Z,317
2017-10-16T12:06:22.522Z,116.2
2017-10-16T12:07:22.517Z,320.6
2017-10-16T12:08:22.538Z,291
2017-10-16T12:09:22.664Z,307.5
2017-10-16T12:10:22.564Z,322.5
2017-10-16T12:11:22.578Z,323.3
2017-10-16T12:12:22.564Z,320.8
2017-10-16T12:13:22.557Z,319.9
2017-10-16T12:14:22.616Z,324
2017-10-16T12:15:22.554Z,336.2
2017-10-16T12:16:22.615Z,328.7
2017-10-16T12:17:22.586Z,324.7
2017-10-16T12:18:22.592Z,326.7
2017-10-16T12:19:22.598Z,336.2
2017-10-16T12:20:22.619Z,99.3
2017-10-16T12:21:22.592Z,47.3
2017-10-16T12:22:22.543Z,346
2017-10-16T12:23:22.526Z,330.4
2017-10-16T12:24:22.571Z,343.6
2017-10-16T12:25:27.766Z,296.3
2017-10-16T12:26:22.605Z,315.6
2017-10-16T12:27:22.565Z,317.3
2017-10-16T12:28:22.591Z,316.1
2017-10-16T12:29:22.594Z,328.9
2017-10-16T12:30:22.629Z,327.6
2017-10-16T12:31:22.539Z,322.9
2017-10-16T12:32:22.550Z,316.7
2017-10-16T12:33:22.578Z,315.7
2017-10-16T12:34:22.495Z,320.4
2017-10-16T12:35:22.620Z,324.1
2017-10-16T12:36:22.595Z,318.6
2017-10-16T12:37:22.528Z,314.2
2017-10-16T12:38:22.583Z,319.8
2017-10-16T12:39:22.540Z,330.7
2017-10-16T12:40:22.643Z,314.2
2017-10-16T12:41:22.577Z,316.6
2017-10-16T12:42:22.509Z,327.2
2017-10-16T12:43:22.536Z,330.9
2017-10-16T12:44:22.530Z,321.2
2017-10-16T12:45:22.627Z,326.8
2017-10-16T12:46:22.564Z,318.6
2017-10-16T12:47:22.534Z,101.2
2017-10-16T12:48:22.464Z,323.3
2017-10-16T12:49:25.369Z,322.8
2017-10-16T12:50:22.557Z,307.6
2017-10-16T12:51:22.605Z,323.2
2017-10-16T12:52:22.475Z,309.1
2017-10-16T12:53:22.562Z,320.6
2017-10-16T12:54:22.551Z,299.5
2017-10-16T12:55:22.600Z,309.9
2017-10-16T12:56:22.607Z,317.6
2017-10-16T12:57:22.546Z,314.7
2017-10-16T12:58:22.553Z,326.4
2017-10-16T12:59:22.548Z,322.7
2017-10-16T13:00:22.633Z,323.9
2017-10-16T13:01:22.512Z,357.2
2017-10-16T13:02:22.558Z,355
2017-10-16T13:03:22.539Z,339
2017-10-16T13:04:22.576Z,338.8
2017-10-16T13:05:22.597Z,339.3
2017-10-16T13:06:22.577Z,332.6
2017-10-16T13:07:27.442Z,347.5
2017-10-16T13:08:23.294Z,343.6
2017-10-16T13:09:22.712Z,340.3
2017-10-16T13:10:22.533Z,324.2
2017-10-16T13:11:23.612Z,327.1
2017-10-16T13:12:22.617Z,335
2017-10-16T13:13:22.814Z,330.5
2017-10-16T13:14:22.469Z,324.5
2017-10-16T13:15:22.600Z,322.7
2017-10-16T13:16:22.546Z,301.3
2017-10-16T13:17:26.260Z,326.8
2017-10-16T13:18:22.461Z,329.4
2017-10-16T13:19:22.736Z,336
2017-10-16T13:20:22.595Z,2.3
2017-10-16T13:21:22.603Z,338.1
2017-10-16T13:22:22.476Z,329.3
2017-10-16T13:23:22.530Z,325.3